createdAt,value
2017-09-02T00:00:34.299Z,101290.27
2017-09-02T00:03:01.680Z,101300.40
2017-09-02T00:08:02.803Z,101301.39
2017-09-02T00:10:30.185Z,101302.13
2017-09-02T00:12:57.580Z,101304.45
2017-09-02T00:15:24.961Z,101304.19
2017-09-02T00:17:52.369Z,101295.73
2017-09-02T00:20:19.750Z,101295.23
2017-09-02T00:22:47.158Z,101295.28
2017-09-02T00:25:14.543Z,101291.58
2017-09-02T00:27:41.943Z,101294.67
2017-09-02T00:30:09.337Z,101298.83
2017-09-02T00:32:36.727Z,101297.50
2017-09-02T00:35:04.115Z,101293.14
2017-09-02T00:37:31.508Z,101296.89
2017-09-02T00:39:58.897Z,101295.20
2017-09-02T00:42:26.290Z,101296.61
2017-09-02T00:44:53.682Z,101296.98
2017-09-02T00:47:21.078Z,101295.26
2017-09-02T00:49:48.466Z,101300.86
2017-09-02T00:52:15.865Z,101295.46
2017-09-02T00:54:43.243Z,101299.67
2017-09-02T00:57:10.647Z,101297.92
2017-09-02T00:59:38.038Z,101299.13
2017-09-02T01:02:05.438Z,101300.58
2017-09-02T01:04:32.842Z,101291.19
2017-09-02T01:07:00.238Z,101297.77
2017-09-02T01:09:27.622Z,101292.64
2017-09-02T01:11:55.016Z,101296.09
2017-09-02T01:14:22.406Z,101293.75
2017-09-02T01:16:49.806Z,101296.96
2017-09-02T01:19:17.195Z,101297.83
2017-09-02T01:21:44.582Z,101295.39
2017-09-02T01:24:11.977Z,101298.86
2017-09-02T01:26:39.356Z,101303.05
2017-09-02T01:29:06.747Z,101295.56
2017-09-02T01:31:34.155Z,101299.36
2017-09-02T01:34:01.547Z,101303.83
2017-09-02T01:36:28.927Z,101295.85
2017-09-02T01:38:56.319Z,101295.36
2017-09-02T01:41:23.704Z,101297.11
2017-09-02T01:43:51.091Z,101293.33
2017-09-02T01:46:18.478Z,101291.53
2017-09-02T01:48:45.876Z,101285.88
2017-09-02T01:51:13.307Z,101287.09
2017-09-02T01:53:40.715Z,101289.45
2017-09-02T01:56:08.100Z,101284.84
2017-09-02T01:58:35.501Z,101283.31
2017-09-02T02:01:02.890Z,101280.68
2017-09-02T02:03:30.315Z,101280.00
2017-09-02T02:05:57.689Z,101283.09
2017-09-02T02:08:25.091Z,101281.48
2017-09-02T02:10:52.483Z,101282.22
2017-09-02T02:13:19.870Z,101278.58
2017-09-02T02:15:47.262Z,101279.42
2017-09-02T02:18:14.646Z,101278.66
2017-09-02T02:20:42.046Z,101274.88
2017-09-02T02:23:09.431Z,101276.13
2017-09-02T02:25:36.834Z,101274.33
2017-09-02T02:28:04.219Z,101274.77
2017-09-02T02:30:31.619Z,101272.81
2017-09-02T02:32:59.003Z,101278.16
2017-09-02T02:35:26.399Z,101277.96
2017-09-02T02:37:53.787Z,101274.80
2017-09-02T02:40:21.178Z,101272.73
2017-09-02T02:42:48.570Z,101271.93
2017-09-02T02:45:15.974Z,101266.70
2017-09-02T02:47:43.356Z,101268.80
2017-09-02T02:50:10.742Z,101269.02
2017-09-02T02:52:38.164Z,101268.84
2017-09-02T02:55:05.547Z,101263.22
2017-09-02T02:57:32.955Z,101266.04
2017-09-02T03:00:00.335Z,101258.29
2017-09-02T03:02:27.727Z,101263.78
2017-09-02T03:04:55.127Z,101261.41
2017-09-02T03:07:22.526Z,101261.72
2017-09-02T03:09:49.914Z,101261.84
2017-09-02T03:12:17.301Z,101259.31
2017-09-02T03:14:44.683Z,101263.32
2017-09-02T03:17:12.079Z,101266.45
2017-09-02T03:19:39.482Z,101264.12
2017-09-02T03:22:06.868Z,101258.18
2017-09-02T03:24:34.257Z,101256.00
2017-09-02T03:27:01.650Z,101261.23
2017-09-02T03:29:29.036Z,101258.05
2017-09-02T03:31:56.434Z,101261.14
2017-09-02T03:34:23.818Z,101254.74
2017-09-02T03:36:51.215Z,101256.56
2017-09-02T03:39:18.606Z,101255.20
2017-09-02T03:41:45.999Z,101264.11
2017-09-02T03:44:13.382Z,101257.88
2017-09-02T03:46:40.773Z,101256.41
2017-09-02T03:49:08.158Z,101256.46
2017-09-02T03:51:35.576Z,101254.20
2017-09-02T03:54:02.955Z,101258.01
2017-09-02T03:56:30.342Z,101259.39
2017-09-02T03:58:58.070Z,101261.81
2017-09-02T04:01:25.462Z,101255.72
2017-09-02T04:03:52.851Z,101255.09
2017-09-02T04:06:20.271Z,101252.28
2017-09-02T04:08:47.651Z,101255.00
2017-09-02T04:11:15.048Z,101255.30
2017-09-02T04:13:42.471Z,101257.55
2017-09-02T04:16:09.856Z,101250.36
2017-09-02T04:18:37.250Z,101260.09
2017-09-02T04:21:04.635Z,101260.57
2017-09-02T04:23:32.026Z,101260.77
2017-09-02T04:25:59.415Z,101259.02
2017-09-02T04:28:26.807Z,101256.95
2017-09-02T04:30:54.191Z,101259.86
2017-09-02T04:33:21.579Z,101257.39
2017-09-02T04:35:48.972Z,101260.30
2017-09-02T04:38:16.411Z,101268.15
2017-09-02T04:40:43.814Z,101268.43
2017-09-02T04:43:11.473Z,101269.64
2017-09-02T04:45:38.872Z,101265.61
2017-09-02T04:48:06.256Z,101271.83
2017-09-02T04:50:33.647Z,101267.48
2017-09-02T04:53:01.039Z,101268.22
2017-09-02T04:55:28.430Z,101268.57
2017-09-02T04:57:56.111Z,101268.08
2017-09-02T05:00:23.510Z,101275.25
2017-09-02T05:02:50.895Z,101276.20
2017-09-02T05:05:18.291Z,101280.16
2017-09-02T05:07:45.938Z,101276.63
2017-09-02T05:10:13.326Z,101275.31
2017-09-02T05:12:40.706Z,101273.18
2017-09-02T05:15:08.105Z,101268.75
2017-09-02T05:17:35.493Z,101268.70
2017-09-02T05:20:03.114Z,101271.02
2017-09-02T05:22:30.506Z,101271.16
2017-09-02T05:24:57.907Z,101269.12
2017-09-02T05:27:25.291Z,101279.97
2017-09-02T05:29:52.711Z,101275.23
2017-09-02T05:32:20.107Z,101273.05
2017-09-02T05:34:47.490Z,101279.34
2017-09-02T05:37:14.939Z,101274.49
2017-09-02T05:39:42.315Z,101275.41
2017-09-02T05:44:42.408Z,101276.64
2017-09-02T05:47:09.802Z,101273.69
2017-09-02T05:49:37.197Z,101275.94
2017-09-02T05:52:04.595Z,101277.09
2017-09-02T05:54:31.988Z,101282.36
2017-09-02T05:56:59.386Z,101284.64
2017-09-02T05:59:26.779Z,101286.05
2017-09-02T06:01:54.189Z,101292.50
2017-09-02T06:04:21.579Z,101281.91
2017-09-02T06:06:48.974Z,101285.73
2017-09-02T06:09:16.366Z,101288.16
2017-09-02T06:11:43.771Z,101288.92
2017-09-02T06:14:11.174Z,101288.77
2017-09-02T06:16:38.564Z,101284.39
2017-09-02T06:19:05.959Z,101291.06
2017-09-02T06:21:33.358Z,101283.23
2017-09-02T06:24:00.780Z,101286.81
2017-09-02T06:26:28.183Z,101290.50
2017-09-02T06:28:55.566Z,101288.50
2017-09-02T06:31:22.975Z,101286.58
2017-09-02T06:33:50.367Z,101285.31
2017-09-02T06:36:17.776Z,101287.98
2017-09-02T06:38:45.167Z,101286.72
2017-09-02T06:41:12.555Z,101284.05
2017-09-02T06:43:39.951Z,101285.91
2017-09-02T06:46:07.343Z,101287.69
2017-09-02T06:48:34.749Z,101283.09
2017-09-02T06:51:02.157Z,101287.80
2017-09-02T06:53:29.849Z,101297.77
2017-09-02T06:55:57.265Z,101302.55
2017-09-02T06:58:24.678Z,101292.89
2017-09-02T07:00:52.071Z,101291.88
2017-09-02T07:03:19.464Z,101298.78
2017-09-02T07:05:46.870Z,101297.94
2017-09-02T07:08:14.267Z,101294.70
2017-09-02T07:10:41.669Z,101294.78
2017-09-02T07:13:09.302Z,101301.20
2017-09-02T07:15:36.693Z,101301.80
2017-09-02T07:18:04.087Z,101299.62
2017-09-02T07:20:31.530Z,101303.82
2017-09-02T07:22:58.930Z,101305.04
2017-09-02T07:25:26.582Z,101307.11
2017-09-02T07:27:53.975Z,101310.42
2017-09-02T07:30:21.598Z,101308.38
2017-09-02T07:32:48.996Z,101307.87
2017-09-02T07:35:16.379Z,101308.66
2017-09-02T07:37:43.782Z,101309.41
2017-09-02T07:40:11.162Z,101302.05
2017-09-02T07:42:38.564Z,101304.03
2017-09-02T07:45:05.958Z,101301.81
2017-09-02T07:47:33.358Z,101302.13
2017-09-02T07:50:00.748Z,101309.05
2017-09-02T07:52:28.138Z,101307.48
2017-09-02T07:54:55.538Z,101311.65
2017-09-02T07:57:22.945Z,101313.38
2017-09-02T07:59:50.322Z,101309.69
2017-09-02T08:02:17.706Z,101315.64
2017-09-02T08:04:45.106Z,101311.03
2017-09-02T08:07:12.790Z,101311.30
2017-09-02T08:09:40.186Z,101312.10
2017-09-02T08:12:07.580Z,101309.08
2017-09-02T08:14:34.970Z,101311.13
2017-09-02T08:17:02.355Z,101310.03
2017-09-02T08:19:29.783Z,101306.62
2017-09-02T08:21:57.179Z,101310.02
2017-09-02T08:24:24.570Z,101313.23
2017-09-02T08:26:51.962Z,101308.44
2017-09-02T08:29:19.357Z,101309.08
2017-09-02T08:31:46.743Z,101313.34
2017-09-02T08:34:14.134Z,101319.28
2017-09-02T08:36:41.536Z,101317.32
2017-09-02T08:39:08.930Z,101313.53
2017-09-02T08:41:36.330Z,101310.63
2017-09-02T08:44:03.967Z,101312.77
2017-09-02T08:46:31.346Z,101309.36
2017-09-02T08:48:58.738Z,101309.75
2017-09-02T08:51:26.141Z,101316.49
2017-09-02T08:53:53.535Z,101309.96
2017-09-02T08:56:20.943Z,101309.55
2017-09-02T08:58:48.332Z,101315.99
2017-09-02T09:01:15.741Z,101307.98
2017-09-02T09:03:43.106Z,101307.38
2017-09-02T09:06:10.504Z,101310.03
2017-09-02T09:08:37.882Z,101314.41
2017-09-02T09:11:05.288Z,101312.75
2017-09-02T09:13:32.664Z,101313.23
2017-09-02T09:16:00.619Z,101307.95
2017-09-02T09:18:28.004Z,101308.95
2017-09-02T09:20:55.403Z,101306.45
2017-09-02T09:23:22.783Z,101314.08
2017-09-02T09:25:50.187Z,101310.84
2017-09-02T09:28:17.575Z,101309.79
2017-09-02T09:30:44.972Z,101306.52
2017-09-02T09:33:12.355Z,101309.20
2017-09-02T09:35:39.749Z,101310.75
2017-09-02T09:38:07.132Z,101304.10
2017-09-02T09:40:34.555Z,101310.33
2017-09-02T09:43:01.937Z,101305.02
2017-09-02T09:45:29.330Z,101302.05
2017-09-02T09:47:56.723Z,101303.25
2017-09-02T09:50:24.114Z,101300.02
2017-09-02T09:52:51.499Z,101298.49
2017-09-02T09:55:18.890Z,101301.15
2017-09-02T09:57:46.279Z,101303.75
2017-09-02T10:00:13.682Z,101308.95
2017-09-02T10:02:41.064Z,101304.07
2017-09-02T10:05:08.649Z,101304.57
2017-09-02T10:07:36.014Z,101303.48
2017-09-02T10:10:03.417Z,101299.13
2017-09-02T10:12:30.823Z,101293.74
2017-09-02T10:14:58.226Z,101298.90
2017-09-02T10:17:25.606Z,101293.41
2017-09-02T10:19:53.012Z,101295.87
2017-09-02T10:22:20.394Z,101290.47
2017-09-02T10:24:47.786Z,101284.87
2017-09-02T10:27:15.166Z,101283.17
2017-09-02T10:29:42.550Z,101281.91
2017-09-02T10:32:09.972Z,101279.87
2017-09-02T10:34:37.327Z,101279.14
2017-09-02T10:37:04.723Z,101275.97
2017-09-02T10:39:32.115Z,101281.27
2017-09-02T10:41:59.508Z,101272.93
2017-09-02T10:44:26.898Z,101274.06
2017-09-02T10:46:54.291Z,101277.17
2017-09-02T10:49:21.677Z,101286.34
2017-09-02T10:51:49.071Z,101281.82
2017-09-02T10:54:16.455Z,101277.80
2017-09-02T10:56:43.853Z,101282.61
2017-09-02T10:59:11.523Z,101274.06
2017-09-02T11:01:38.926Z,101272.65
2017-09-02T11:04:06.305Z,101266.15
2017-09-02T11:06:33.691Z,101262.12
2017-09-02T11:09:01.091Z,101256.25
2017-09-02T11:11:28.470Z,101259.77
2017-09-02T11:13:55.854Z,101265.42
2017-09-02T11:16:23.268Z,101260.75
2017-09-02T11:18:50.647Z,101257.48
2017-09-02T11:21:18.039Z,101256.84
2017-09-02T11:23:45.436Z,101256.95
2017-09-02T11:26:12.830Z,101256.03
2017-09-02T11:28:40.246Z,101249.14
2017-09-02T11:31:07.630Z,101249.10
2017-09-02T11:33:35.032Z,101254.27
2017-09-02T11:36:02.658Z,101255.17
2017-09-02T11:38:30.051Z,101252.67
2017-09-02T11:40:57.435Z,101259.05
2017-09-02T11:43:24.822Z,101258.32
2017-09-02T11:45:52.210Z,101254.63
2017-09-02T11:48:19.599Z,101251.68
2017-09-02T11:50:46.978Z,101260.27
2017-09-02T11:53:14.376Z,101260.50
2017-09-02T11:55:41.763Z,101265.06
2017-09-02T11:58:09.161Z,101255.86
2017-09-02T12:00:36.542Z,101264.44
2017-09-02T12:03:03.937Z,101261.88
2017-09-02T12:05:31.322Z,101253.27
2017-09-02T12:07:58.930Z,101259.70
2017-09-02T12:10:26.339Z,101253.58
2017-09-02T12:12:53.736Z,101252.77
2017-09-02T12:15:21.134Z,101248.48
2017-09-02T12:17:48.507Z,101243.83
2017-09-02T12:20:15.962Z,101241.95
2017-09-02T12:22:43.347Z,101240.24
2017-09-02T12:25:10.739Z,101240.77
2017-09-02T12:27:38.133Z,101242.86
2017-09-02T12:30:05.532Z,101235.94
2017-09-02T12:32:32.916Z,101242.16
2017-09-02T12:35:00.311Z,101246.00
2017-09-02T12:37:27.955Z,101237.84
2017-09-02T12:39:55.610Z,101239.38
2017-09-02T12:42:23.017Z,101241.37
2017-09-02T12:44:50.390Z,101235.27
2017-09-02T12:47:17.778Z,101231.77
2017-09-02T12:49:45.439Z,101232.34
2017-09-02T12:52:12.834Z,101230.23
2017-09-02T12:54:40.237Z,101222.77
2017-09-02T12:57:07.616Z,101225.78
2017-09-02T12:59:35.019Z,101214.59
2017-09-02T13:02:02.404Z,101228.06
2017-09-02T13:04:29.806Z,101219.24
2017-09-02T13:06:57.190Z,101221.93
2017-09-02T13:09:24.570Z,101216.87
2017-09-02T13:11:51.969Z,101215.48
2017-09-02T13:14:19.361Z,101204.62
2017-09-02T13:16:46.747Z,101197.52
2017-09-02T13:19:14.331Z,101196.48
2017-09-02T13:21:41.727Z,101200.33
2017-09-02T13:24:09.123Z,101203.08
2017-09-02T13:26:36.524Z,101213.55
2017-09-02T13:29:03.906Z,101206.36
2017-09-02T13:31:31.304Z,101211.76
2017-09-02T13:33:58.947Z,101210.81
2017-09-02T13:36:26.336Z,101206.53
2017-09-02T13:38:53.739Z,101204.11
2017-09-02T13:41:21.144Z,101214.39
2017-09-02T13:43:48.730Z,101218.14
2017-09-02T13:46:16.141Z,101221.65
2017-09-02T13:48:43.739Z,101223.63
2017-09-02T13:51:11.144Z,101215.89
2017-09-02T13:53:38.519Z,101219.16
2017-09-02T13:56:05.908Z,101223.52
2017-09-02T13:58:33.304Z,101225.07
2017-09-02T14:01:00.705Z,101218.15
2017-09-02T14:03:28.106Z,101219.83
2017-09-02T14:05:55.498Z,101214.84
2017-09-02T14:08:22.891Z,101218.98
2017-09-02T14:10:50.295Z,101212.66
2017-09-02T14:13:17.689Z,101222.77
2017-09-02T14:47:16.010Z,101214.33
2017-09-02T14:49:43.483Z,101218.13
2017-09-02T14:52:11.035Z,101211.88
2017-09-02T14:54:38.423Z,101212.56
2017-09-02T14:57:05.818Z,101212.34
2017-09-02T14:59:33.218Z,101215.12
2017-09-02T15:02:00.606Z,101213.23
2017-09-02T15:04:28.006Z,101209.66
2017-09-02T15:06:55.391Z,101207.02
2017-09-02T15:09:22.789Z,101202.92
2017-09-02T15:11:50.171Z,101205.08
2017-09-02T15:14:17.562Z,101204.16
2017-09-02T15:16:45.043Z,101197.45
2017-09-02T15:19:12.435Z,101201.34
2017-09-02T15:21:39.824Z,101195.54
2017-09-02T15:24:07.223Z,101202.30
2017-09-02T15:26:34.611Z,101200.22
2017-09-02T15:29:02.058Z,101201.51
2017-09-02T15:31:29.462Z,101194.30
2017-09-02T15:33:56.888Z,101204.20
2017-09-02T15:36:24.327Z,101206.45
2017-09-02T15:38:51.818Z,101206.19
2017-09-02T15:41:19.258Z,101203.48
2017-09-02T15:43:46.651Z,101193.30
2017-09-02T15:46:14.073Z,101197.36
2017-09-02T15:48:41.450Z,101198.81
2017-09-02T15:51:09.401Z,101214.16
2017-09-02T15:53:37.280Z,101212.73
2017-09-02T15:56:05.511Z,101216.78
2017-09-02T15:58:33.424Z,101215.05
2017-09-02T16:01:01.291Z,101220.02
2017-09-02T16:03:29.159Z,101213.78
2017-09-02T16:05:57.008Z,101208.86
2017-09-02T16:08:24.688Z,101212.41
2017-09-02T16:10:52.280Z,101212.25
2017-09-02T16:13:20.114Z,101207.64
2017-09-02T16:15:47.985Z,101211.06
2017-09-02T16:18:15.950Z,101213.11
2017-09-02T16:20:43.817Z,101211.16
2017-09-02T16:23:11.454Z,101210.91
2017-09-02T16:25:38.987Z,101215.72
2017-09-02T16:28:06.746Z,101216.23
2017-09-02T16:30:34.155Z,101218.83
2017-09-02T16:33:01.860Z,101217.59
2017-09-02T16:35:29.688Z,101215.21
2017-09-02T16:37:57.452Z,101219.17
2017-09-02T16:40:24.887Z,101220.00
2017-09-02T16:42:52.440Z,101214.94
2017-09-02T16:45:20.245Z,101209.73
2017-09-02T16:47:48.289Z,101211.83
2017-09-02T16:50:16.080Z,101209.61
2017-09-02T16:52:44.072Z,101208.58
2017-09-02T16:55:11.498Z,101207.27
2017-09-02T16:57:39.191Z,101214.28
2017-09-02T17:00:06.619Z,101216.73
2017-09-02T17:02:34.491Z,101211.41
2017-09-02T17:05:02.389Z,101215.30
2017-09-02T17:07:30.453Z,101211.97
2017-09-02T17:09:58.322Z,101215.41
2017-09-02T17:12:25.741Z,101216.00
2017-09-02T17:14:53.133Z,101220.55
2017-09-02T17:17:20.539Z,101224.41
2017-09-02T17:19:48.043Z,101222.61
2017-09-02T17:22:15.775Z,101215.34
2017-09-02T17:24:43.190Z,101214.52
2017-09-02T17:27:10.672Z,101219.75
2017-09-02T17:29:38.075Z,101221.80
2017-09-02T17:32:05.462Z,101221.18
2017-09-02T17:34:32.851Z,101217.71
2017-09-02T17:37:00.235Z,101220.95
2017-09-02T17:39:27.622Z,101217.14
2017-09-02T17:41:55.357Z,101215.89
2017-09-02T17:44:22.814Z,101222.23
2017-09-02T17:46:50.199Z,101221.44
2017-09-02T17:49:17.622Z,101212.43
2017-09-02T17:51:45.011Z,101215.78
2017-09-02T17:54:12.403Z,101216.30
2017-09-02T17:56:39.783Z,101218.68
2017-09-02T17:59:07.170Z,101223.87
2017-09-02T18:01:34.595Z,101217.91
2017-09-02T18:04:01.986Z,101219.92
2017-09-02T18:06:29.374Z,101220.20
2017-09-02T18:08:57.012Z,101224.02
2017-09-02T18:11:24.403Z,101222.30
2017-09-02T18:13:51.790Z,101218.89
2017-09-02T18:16:19.182Z,101219.84
2017-09-02T18:18:46.597Z,101221.95
2017-09-02T18:21:13.983Z,101223.19
2017-09-02T18:23:41.414Z,101217.34
2017-09-02T18:26:08.811Z,101222.30
2017-09-02T18:28:36.223Z,101219.19
2017-09-02T18:31:03.618Z,101219.97
2017-09-02T18:33:31.007Z,101222.86
2017-09-02T18:35:58.491Z,101224.53
2017-09-02T18:38:25.918Z,101228.29
2017-09-02T18:40:53.298Z,101226.95
2017-09-02T18:43:20.759Z,101229.22
2017-09-02T18:45:48.280Z,101231.36
2017-09-02T18:48:15.674Z,101234.88
2017-09-02T18:50:43.061Z,101231.70
2017-09-02T18:53:10.454Z,101239.77
2017-09-02T18:55:37.839Z,101240.59
2017-09-02T18:58:05.247Z,101241.07
2017-09-02T19:00:32.669Z,101248.56
2017-09-02T19:03:00.055Z,101252.16
2017-09-02T19:05:27.442Z,101249.89
2017-09-02T19:07:54.833Z,101252.88
2017-09-02T19:10:22.219Z,101252.23
2017-09-02T19:12:49.630Z,101256.77
2017-09-02T19:15:17.018Z,101252.03
2017-09-02T19:17:45.315Z,101253.66
2017-09-02T19:20:12.713Z,101262.80
2017-09-02T19:22:40.098Z,101260.89
2017-09-02T19:25:07.493Z,101257.34
2017-09-02T19:27:34.881Z,101260.28
2017-09-02T19:30:02.385Z,101265.48
2017-09-02T19:32:29.783Z,101268.34
2017-09-02T19:34:57.172Z,101270.00
2017-09-02T19:37:24.554Z,101276.33
2017-09-02T19:42:25.666Z,101267.16
2017-09-02T19:44:53.123Z,101267.00
2017-09-02T19:47:20.506Z,101264.28
2017-09-02T19:49:47.903Z,101265.05
2017-09-02T19:52:15.407Z,101274.23
2017-09-02T19:54:42.794Z,101266.32
2017-09-02T19:57:10.224Z,101266.20
2017-09-02T19:59:37.611Z,101268.16
2017-09-02T20:02:05.022Z,101266.09
2017-09-02T20:04:32.406Z,101272.72
2017-09-02T20:06:59.799Z,101268.02
2017-09-02T20:09:27.197Z,101269.33
2017-09-02T20:11:54.587Z,101269.88
2017-09-02T20:14:21.971Z,101269.99
2017-09-02T20:16:49.367Z,101275.05
2017-09-02T20:19:16.747Z,101274.14
2017-09-02T20:21:44.147Z,101272.70
2017-09-02T20:24:11.546Z,101268.82
2017-09-02T20:26:38.938Z,101267.77
2017-09-02T20:29:06.427Z,101262.27
2017-09-02T20:31:33.867Z,101264.07
2017-09-02T20:34:01.247Z,101261.77
2017-09-02T20:36:28.687Z,101255.78
2017-09-02T20:38:56.070Z,101256.20
2017-09-02T20:41:23.492Z,101262.45
2017-09-02T20:43:50.854Z,101260.28
2017-09-02T20:46:18.244Z,101253.89
2017-09-02T20:48:45.670Z,101250.23
2017-09-02T20:51:13.126Z,101257.32
2017-09-02T20:53:40.524Z,101246.73
2017-09-02T20:56:07.948Z,101259.33
2017-09-02T20:58:35.322Z,101251.82
2017-09-02T21:01:02.747Z,101253.39
2017-09-02T21:03:30.207Z,101251.39
2017-09-02T21:05:57.883Z,101258.26
2017-09-02T21:08:25.278Z,101252.96
2017-09-02T21:10:52.659Z,101253.59
2017-09-02T21:13:20.050Z,101252.83
2017-09-02T21:15:47.430Z,101250.83
2017-09-02T21:18:14.826Z,101258.13
2017-09-02T21:20:42.298Z,101253.28
2017-09-02T21:23:09.687Z,101255.45
2017-09-02T21:25:37.078Z,101258.09
2017-09-02T21:28:04.482Z,101252.93
2017-09-02T21:30:31.879Z,101254.37
2017-09-02T21:32:59.283Z,101247.33
2017-09-02T21:35:26.738Z,101257.61
2017-09-02T21:37:54.138Z,101260.91
2017-09-02T21:40:21.643Z,101259.09
2017-09-02T21:42:49.103Z,101259.75
2017-09-02T21:45:16.563Z,101265.72
2017-09-02T21:47:44.022Z,101263.78
2017-09-02T21:50:11.440Z,101260.13
2017-09-02T21:52:38.935Z,101261.55
2017-09-02T21:55:06.332Z,101258.62
2017-09-02T21:57:33.744Z,101260.55
2017-09-02T22:00:01.196Z,101259.11
2017-09-02T22:02:28.579Z,101256.27
2017-09-02T22:04:55.973Z,101256.38
2017-09-02T22:07:23.463Z,101262.92
2017-09-02T22:09:50.854Z,101264.59
2017-09-02T22:12:18.246Z,101254.69
2017-09-02T22:14:45.635Z,101264.08
2017-09-02T22:17:13.029Z,101262.28
2017-09-02T22:19:40.429Z,101263.53
2017-09-02T22:22:07.815Z,101268.47
2017-09-02T22:24:35.216Z,101265.67
2017-09-02T22:27:02.596Z,101265.88
2017-09-02T22:29:29.983Z,101264.13
2017-09-02T22:31:57.386Z,101266.53
2017-09-02T22:34:24.774Z,101273.25
2017-09-02T22:36:52.182Z,101274.22
2017-09-02T22:39:19.567Z,101279.58
2017-09-02T22:41:46.958Z,101282.84
2017-09-02T22:44:14.343Z,101279.58
2017-09-02T22:46:41.748Z,101276.70
2017-09-02T22:49:09.132Z,101282.09
2017-09-02T22:51:36.543Z,101272.93
2017-09-02T22:54:04.015Z,101279.05
2017-09-02T22:56:31.407Z,101275.12
2017-09-02T22:58:58.806Z,101268.66
2017-09-02T23:01:26.196Z,101266.23
2017-09-02T23:03:53.593Z,101264.13
2017-09-02T23:06:20.987Z,101268.38
2017-09-02T23:08:48.387Z,101277.76
2017-09-02T23:11:15.763Z,101275.48
2017-09-02T23:13:43.155Z,101269.91
2017-09-02T23:16:10.615Z,101264.32
2017-09-02T23:18:38.089Z,101259.02
2017-09-02T23:21:05.475Z,101249.53
2017-09-02T23:23:32.883Z,101248.66
2017-09-02T23:26:00.336Z,101249.29
2017-09-02T23:28:27.718Z,101244.73
2017-09-02T23:30:55.121Z,101250.14
2017-09-02T23:33:22.503Z,101243.06
2017-09-02T23:35:49.906Z,101250.99
2017-09-02T23:38:17.286Z,101250.99
2017-09-02T23:40:44.744Z,101249.02
2017-09-02T23:43:12.127Z,101249.98
2017-09-02T23:45:39.559Z,101242.11
2017-09-02T23:48:07.034Z,101246.16
2017-09-02T23:50:34.490Z,101244.80
2017-09-02T23:53:01.874Z,101237.29
2017-09-02T23:55:29.279Z,101237.80
2017-09-02T23:57:56.662Z,101237.72
